aviador You're here:

YKRY Decoded Metar

in
Report Time2018-02-22 12:00:00
UTC Time2018-02-22 12:29:51
Flight Rules ifr IFR
Wind120° at 07 kt
W.Decomp.*RWY 16: 5.4 kt HW 4.5 kt LCW
RWY 05: 2.4 kt HW 6.6 kt RCW
W.Rank120° ranks 2
Current wind is below 120° avg. (7.1)
VisibilityN/A
Phenomena:N/A
Clouds:Overcast 006 Hf
Ceiling600 ft
Temp19°C
Dew Point19°C (100% RH)
QNH1014 hPa
Raw Report
METAR YKRY 221200Z AUTO 12007KT //// // OVC006 19/19 Q1014=

Extra information for YKRY:More info

Social comments